Tiempo atmosférico en la estación meteorológica de Valleseco, Las Palmas (900 m.)



Fecha
DESCASC
Temp. máxima en grados centígrados (hora)
DESCASC
Temp. mínima en grados centígrados (hora)
DESCASC
Temp. media en grados centígrados
DESCASC
Racha de viento máxima en m/sg (hora)
DESCASC
Velocidad máxima media en intervalos de 10 minutos(hora)
DESCASC
Precipitaciones diarias en mm
DESCASC
Precipitaciones de 00:00 a 06:00 en mm
DESCASC
Precipitaciones de 06:00 a 12:00 en mm
DESCASC
Precipitaciones de 12:00 a 18:00 en mm
DESCASC
Precipitaciones de 18:00 a 24:00 en mm
DESCASC
16-06-2019 20.8 (17:00) 9.1 (05:10) 14.9 6.11 (12:40) 2.78 (12:40) 0 0 0 0 0
15-06-2019 19.4 (11:40) 9.1 (04:10) 14.3 6.11 (07:20) 4.17 (07:10) 0 0 0 0 0
14-06-2019 16.3 (10:20) 9.4 (23:50) 12.8 5.56 (12:10) 2.5 (10:30) 0 0 0 0 0
13-06-2019 19.6 (15:10) 10.6 (00:00) 15.1 8.89 (13:40) 5 (00:30) 0.4 0.2 0.2 0 0
12-06-2019 17.7 (16:30) 10.6 (00:00) 14.2 10 (22:30) 5.56 (22:30) 13.8 6.6 7 0 0.2
11-06-2019 14.7 (13:20) 11.2 (00:00) 12.9 8.33 (23:30) 5 (12:50) 2.2 0 0.8 1.2 0.2
10-06-2019 18.7 (15:10) 11.3 (00:00) 15 7.5 (17:10) 3.89 (15:50) 0 0 0 0 0
09-06-2019 19.4 (16:10) 10.4 (00:00) 14.9 6.39 (15:30) 3.61 (15:10) 0 0 0 0 0
08-06-2019 18.6 (18:50) 11.7 (00:00) 15.2 6.94 (04:40) 3.89 (17:00) 3.6 1.8 1.4 0.2 0.2
07-06-2019 19.2 (16:10) 10.9 (00:00) 15.1 6.67 (01:40) 3.89 (01:50) 0 0 0 0 0
06-06-2019 18.4 (17:40) 10.9 (00:00) 14.6 7.78 (00:50) 4.17 (00:50) 0.4 0.2 0.2 0 0
05-06-2019 18.6 (13:40) 12.4 (00:00) 15.5 7.78 (02:30) 3.89 (02:40) 0.4 0 0 0 0.4
04-06-2019 27.2 (13:10) 13.1 (00:00) 20.2 5.28 (22:00) 3.33 (18:30) 0 0 0 0 0
03-06-2019 31.5 (11:10) 18.2 (00:00) 24.9 7.5 (02:40) 5 (00:10) 0 0 0 0 0
02-06-2019 32.2 (12:50) 18 (00:00) 25.1 9.72 (02:40) 6.39 (03:00) 0 0 0 0 0
01-06-2019 28.2 (18:50) 14.6 (00:00) 21.4 10.28 (05:30) 6.11 (05:20) 0 0 0 0 0
31-05-2019 27.9 (09:20) 15.4 (00:00) 21.6 4.44 (03:50) 3.89 (06:30) 0 0 0 0 0
30-05-2019 25 (08:50) 11.2 (00:00) 18.1 4.72 (13:30) 2.5 (04:40) 0 0 0 0 0
29-05-2019 22.7 (15:20) 10.4 (00:00) 16.6 3.89 (14:10) 2.22 (00:30) 0 0 0 0 0
28-05-2019 21.9 (15:50) 11.2 (00:00) 16.5 4.17 (16:30) 2.5 (20:30) 0 0 0 0 0
27-05-2019 25 (13:20) 13.8 (00:00) 19.4 7.22 (05:20) 3.89 (05:40) 0 0 0 0 0
26-05-2019 22.7 (18:30) 10.6 (00:00) 16.7 6.11 (01:30) 3.33 (01:50) 0 0 0 0 0
25-05-2019 18.5 (17:50) 11.5 (00:00) 15 7.22 (23:10) 4.17 (22:10) 1.2 0 1.2 0 0
24-05-2019 26 (17:10) 10.9 (00:00) 18.4 7.78 (11:10) 4.17 (13:20) 0 0 0 0 0
23-05-2019 16.9 (15:10) 11 (00:00) 13.9 10 (02:50) 5 (02:50) 0.2 0.2 0 0 0
22-05-2019 16.6 (13:40) 11.2 (00:00) 13.9 7.78 (19:10) 4.17 (18:50) 1.6 0.2 0.4 0.2 0.8

Gráficas

Temp. máximas Temp. mínimas Temp. medias Precipitaciones Rachas de viento máximas Velocidades máximas media en intervalos de 10 minutos

Datos horarios

Fecha y hora oficial Temperatura (ºC) Velocidad del viento (km/h) Dirección del viento Racha (km/h) Dirección de racha Precipitación (mm) Presión (hPa) Tendencia (hPa) Humedad (%)
2019-06-20 23:00:00 13.8 9 Noroeste 18 Oeste 0 -- -- 92
2019-06-20 22:00:00 14.3 10 Noroeste 18 Noroeste 0 -- -- 92
2019-06-20 21:00:00 14.1 9 Noroeste 23 Norte 0 -- -- 90
2019-06-20 20:00:00 15.9 10 Noroeste 22 Norte 0 -- -- 87
2019-06-20 19:00:00 19 12 Noroeste 24 Norte 0 -- -- 72
2019-06-20 18:00:00 19.6 14 Noroeste 24 Noroeste 0 -- -- 71
2019-06-20 17:00:00 21.2 14 Noroeste 26 Noroeste 0 -- -- 61
2019-06-20 16:00:00 21.8 15 Noroeste 27 Noroeste 0 -- -- 55
2019-06-20 15:00:00 22.1 12 Noroeste 24 Norte 0 -- -- 54
2019-06-20 14:00:00 21.1 13 Norte 24 Norte 0 -- -- 57
2019-06-20 13:00:00 21.4 11 Norte 21 Norte 0 -- -- 58
2019-06-20 12:00:00 20.6 10 Noroeste 20 Norte 0 -- -- 62
2019-06-20 11:00:00 19.6 11 Noroeste 17 Noroeste 0 -- -- 67
2019-06-20 10:00:00 16.6 8 Noroeste 19 Noroeste 0 -- -- 80
2019-06-20 09:00:00 14.8 8 Noroeste 17 Noroeste 0 -- -- 92
2019-06-20 08:00:00 13.8 8 Noroeste 16 Oeste 0 -- -- 94
2019-06-20 07:00:00 13.3 12 Oeste 21 Oeste 0 -- -- 92
2019-06-20 06:00:00 12.4 14 Oeste 25 Sudoeste 0 -- -- 93
2019-06-20 05:00:00 12.6 13 Oeste 22 Oeste 0 -- -- 93
2019-06-20 04:00:00 12.2 14 Oeste 20 Oeste 0 -- -- 95
2019-06-20 03:00:00 13.8 10 Noroeste 19 Oeste 0 -- -- 95
2019-06-20 02:00:00 13.4 14 Oeste 25 Oeste 0 -- -- 91
2019-06-20 01:00:00 13.3 13 Oeste 23 Oeste 0 -- -- 93
2019-06-20 00:00:00 13.6 15 Oeste 26 Noroeste 0 -- -- 91
2019-06-19 23:00:00 13.7 18 Oeste 25 Oeste 0 -- -- 86
2019-06-19 22:00:00 13.8 14 Oeste 21 Oeste 0 -- -- 88
2019-06-19 21:00:00 14.8 10 Noroeste 18 Oeste 0 -- -- 84
2019-06-19 20:00:00 18.6 10 Noroeste 18 Oeste 0 -- -- 72
2019-06-19 19:00:00 20.6 11 Noroeste 24 Noroeste 0 -- -- 63
2019-06-19 18:00:00 21.7 13 Noroeste 28 Noroeste 0 -- -- 56
2019-06-19 17:00:00 21.8 15 Noroeste 29 Norte 0 -- -- 56
2019-06-19 16:00:00 22 17 Noroeste 35 Norte 0 -- -- 55
2019-06-19 15:00:00 21.8 16 Noroeste 28 Noroeste 0 -- -- 63
2019-06-19 14:00:00 21.7 14 Noroeste -- -- -- -- -- 65
2019-06-19 13:00:00 -- -- -- -- -- -- -- -- --
2019-06-19 12:00:00 -- -- -- -- -- -- -- -- --
2019-06-19 11:00:00 -- -- -- -- -- -- -- -- --
2019-06-19 10:00:00 -- -- -- -- -- -- -- -- --
2019-06-19 09:00:00 -- -- -- -- -- -- -- -- --
2019-06-19 08:00:00 -- -- -- -- -- -- -- -- --
2019-06-19 07:00:00 -- -- -- -- -- -- -- -- --
2019-06-19 06:00:00 -- -- -- -- -- -- -- -- --
2019-06-19 05:00:00 -- -- -- -- -- -- -- -- --
2019-06-19 04:00:00 -- -- -- -- -- -- -- -- --
2019-06-19 03:00:00 -- -- -- -- -- -- -- -- --
2019-06-19 02:00:00 -- -- -- -- -- -- -- -- --
2019-06-19 01:00:00 -- -- -- -- -- -- -- -- --
2019-06-19 00:00:00 -- -- -- -- -- -- -- -- --
2019-06-18 23:00:00 -- -- -- -- -- -- -- -- --
2019-06-18 22:00:00 -- -- -- -- -- -- -- -- --
2019-06-18 21:00:00 -- -- -- -- -- -- -- -- --
2019-06-18 20:00:00 -- -- -- -- -- -- -- -- --
2019-06-18 19:00:00 -- -- -- -- -- -- -- -- --
2019-06-18 18:00:00 17.1 3 Noroeste 9 Norte 0 -- -- 92
2019-06-18 17:00:00 17.7 5 Norte 9 Noroeste 0 -- -- 87
2019-06-18 16:00:00 19.3 4 Norte 10 Noroeste 0 -- -- 79
2019-06-18 15:00:00 19.8 5 Noroeste 12 Norte 0 -- -- 73
2019-06-18 14:00:00 19.3 7 Norte 17 Norte 0 -- -- 77
2019-06-18 13:00:00 18.6 10 Norte 21 Norte 0 -- -- 79
2019-06-18 12:00:00 19.5 8 Noroeste 19 Norte 0 -- -- 76
2019-06-18 11:00:00 20.4 8 Norte 16 Noroeste 0 -- -- 72
2019-06-18 10:00:00 20.4 9 Noroeste 16 Noroeste 0 -- -- 70
2019-06-18 09:00:00 18.1 6 Noroeste 12 Noroeste 0 -- -- 78
2019-06-18 08:00:00 15.3 6 Noroeste 10 Noroeste 0 -- -- 82
2019-06-18 07:00:00 13.6 8 Noroeste 13 Oeste 0 -- -- 85
2019-06-18 06:00:00 14.4 9 Oeste 12 Oeste 0 -- -- 79
2019-06-18 05:00:00 14.8 6 Noroeste 9 Noroeste 0 -- -- 72
2019-06-18 04:00:00 15.4 2 Nordeste 4 Noroeste 0 -- -- 68
2019-06-18 03:00:00 15 2 Norte 4 Norte 0 -- -- 73
2019-06-18 02:00:00 14.7 5 Oeste 9 Oeste 0 -- -- 84
2019-06-18 01:00:00 15.1 8 Oeste 13 Oeste 0 -- -- 88
2019-06-18 00:00:00 15.2 9 Oeste 14 Oeste 0 -- -- 86
2019-06-17 23:00:00 14.7 6 Noroeste 10 Noroeste 0 -- -- 83
2019-06-17 22:00:00 14.9 7 Oeste 9 Oeste 0 -- -- 79
2019-06-17 21:00:00 16.5 4 Noroeste 9 Noroeste 0 -- -- 76
2019-06-17 20:00:00 20.8 5 Norte 9 Noroeste 0 -- -- 58
2019-06-17 19:00:00 22.5 5 Norte 12 Norte 0 -- -- 50
2019-06-17 18:00:00 22.9 4 Este 14 Noroeste 0 -- -- 50
2019-06-17 17:00:00 22.4 6 Norte 16 Norte 0 -- -- 50
2019-06-17 16:00:00 22.9 7 Norte 17 Noroeste 0 -- -- 51
2019-06-17 15:00:00 22.7 8 Norte 17 Norte 0 -- -- 53
2019-06-17 14:00:00 22.3 6 Norte 14 Noroeste 0 -- -- 58
2019-06-17 13:00:00 22.1 7 Norte 15 Noroeste 0 -- -- 60
2019-06-17 12:00:00 22.3 7 Norte 13 Norte 0 -- -- 58
2019-06-17 11:00:00 21.8 6 Norte 11 Norte 0 -- -- 53
2019-06-17 10:00:00 20.8 5 Noroeste 14 Norte 0 -- -- 54
2019-06-17 09:00:00 18.3 10 Noroeste 16 Oeste 0 -- -- 56
2019-06-17 08:00:00 16 13 Oeste 18 Oeste 0 -- -- 59
2019-06-17 07:00:00 14 13 Noroeste 19 Noroeste 0 -- -- 60
2019-06-17 06:00:00 13.7 7 Noroeste 13 Noroeste 0 -- -- 59
2019-06-17 05:00:00 14.3 9 Noroeste 18 Oeste 0 -- -- 54
2019-06-17 04:00:00 14.3 10 Oeste 20 Oeste 0 -- -- 59
2019-06-17 03:00:00 13.5 14 Oeste 23 Oeste 0 -- -- 65
2019-06-17 02:00:00 11.9 8 Noroeste 12 Oeste 0 -- -- 82
2019-06-17 01:00:00 12.5 8 Noroeste 12 Oeste 0 -- -- 79
2019-06-17 00:00:00 12.2 8 Noroeste 11 Noroeste 0 -- -- 86
2019-06-16 23:00:00 12.2 6 Norte 9 Norte 0 -- -- 91
2019-06-16 22:00:00 12.3 0 Calma 5 Sudoeste 0 -- -- 94
2019-06-16 21:00:00 13.7 3 Noroeste 6 Noroeste 0 -- -- 89
2019-06-16 20:00:00 16.2 0 Calma 13 Noroeste 0 -- -- 80
2019-06-16 19:00:00 18.7 5 Norte 13 Norte 0 -- -- 72
2019-06-16 18:00:00 20 5 Norte 16 Noroeste 0 -- -- 66
2019-06-16 17:00:00 20.8 4 Norte 13 Este 0 -- -- 64
2019-06-16 16:00:00 19 5 Este 11 Este 0 -- -- 70
2019-06-16 15:00:00 17.5 5 Este 12 Sudeste 0 -- -- 76
2019-06-16 14:00:00 17.9 3 Nordeste 13 Este 0 -- -- 75
2019-06-16 13:00:00 19.8 7 Sudeste 22 Este 0 -- -- 67
2019-06-16 12:00:00 17.2 4 Norte 11 Nordeste 0 -- -- 77
2019-06-16 11:00:00 19.6 5 Norte 10 Norte 0 -- -- 60
2019-06-16 10:00:00 17.7 5 Norte 10 Norte 0 -- -- 66
2019-06-16 09:00:00 17.1 3 Nordeste 12 Sudeste 0 -- -- 65
2019-06-16 08:00:00 14 6 Este 10 Este 0 -- -- 78
2019-06-16 07:00:00 10.3 4 Oeste 12 Noroeste 0 -- -- 87
2019-06-16 06:00:00 11 9 Oeste 13 Noroeste 0 -- -- 79
2019-06-16 05:00:00 9.3 6 Oeste 10 Oeste 0 -- -- 97
2019-06-16 04:00:00 9.7 3 Sudeste 6 Este 0 -- -- 98
2019-06-16 03:00:00 10.4 5 Sudeste 12 Este 0 -- -- 97
2019-06-16 02:00:00 11.4 5 Sudeste 11 Sudeste 0 -- -- 96
2019-06-16 01:00:00 11.7 3 Sudeste 12 Sudeste 0 -- -- 95
2019-06-16 00:00:00 11.9 7 Sudeste 13 Sudeste 0 -- -- 96
2019-06-15 23:00:00 11.7 2 Sudeste 7 Noroeste 0 -- -- 94
2019-06-15 22:00:00 12 3 Norte 10 Norte 0 -- -- 95
2019-06-15 21:00:00 12.4 3 Norte 9 Noroeste 0 -- -- 94
2019-06-15 20:00:00 12.7 3 Noroeste 8 Norte 0 -- -- 93
2019-06-15 19:00:00 12.9 5 Norte 11 Norte 0 -- -- 89
2019-06-15 18:00:00 13.6 4 Norte 10 Norte 0 -- -- 87
2019-06-15 17:00:00 13.8 4 Norte 12 Este 0 -- -- 88
2019-06-15 16:00:00 14 3 Este 15 Este 0 -- -- 87
2019-06-15 15:00:00 14.6 4 Nordeste 12 Este 0 -- -- 86
2019-06-15 14:00:00 15.1 4 Norte 14 Norte 0 -- -- 82
2019-06-15 13:00:00 16.6 5 Este 20 Norte 0 -- -- 72
2019-06-15 12:00:00 17.7 6 Norte 21 Este 0 -- -- 70
2019-06-15 11:00:00 18.3 9 Este 20 Este 0 -- -- 59
2019-06-15 10:00:00 13.9 3 Este 10 Este 0 -- -- 80
2019-06-15 09:00:00 11.4 3 Este 18 Este 0 -- -- 97
2019-06-15 08:00:00 11.3 8 Sudeste 22 Sudeste 0 -- -- 98
2019-06-15 07:00:00 11.2 10 Sudeste 18 Sudeste 0 -- -- 97
2019-06-15 06:00:00 10.7 7 Este 13 Sudeste 0 -- -- 94
2019-06-15 05:00:00 10.6 3 Sudeste 9 Sudeste 0 -- -- 93
2019-06-15 04:00:00 9.2 5 Sudeste 10 Sudeste 0 -- -- 96
2019-06-15 03:00:00 10.4 5 Este 8 Sudeste 0 -- -- 95
2019-06-15 02:00:00 10.6 0 Calma 10 Este 0 -- -- 94
2019-06-15 01:00:00 9.4 6 Este 10 Este 0 -- -- 94
2019-06-15 00:00:00 9.4 5 Sudeste 13 Nordeste 0 -- -- 94
2019-06-14 23:00:00 10.4 8 Sudeste 11 Sudeste 0 -- -- 95
2019-06-14 22:00:00 11.8 4 Este 10 Norte 0 -- -- 91
2019-06-14 21:00:00 12.3 2 Este 8 Noroeste 0 -- -- 89
2019-06-14 20:00:00 13.4 2 Noroeste 12 Noroeste 0 -- -- 79
2019-06-14 19:00:00 14.5 7 Norte 14 Norte 0 -- -- 76
2019-06-14 18:00:00 15 6 Norte 14 Norte 0 -- -- 69
2019-06-14 17:00:00 14.1 6 Norte 14 Norte 0 -- -- 76
2019-06-14 16:00:00 13.9 8 Norte 16 Norte 0 -- -- 77
2019-06-14 15:00:00 14.3 6 Norte 14 Norte 0 -- -- 83
2019-06-14 14:00:00 14.3 6 Norte 10 Norte 0 -- -- 79
2019-06-14 13:00:00 13.9 5 Norte 20 Norte 0 -- -- 82
2019-06-14 12:00:00 14.5 9 Norte 18 Norte 0 -- -- 80
2019-06-14 11:00:00 15.3 7 Norte 15 Noroeste 0 -- -- 74
2019-06-14 10:00:00 15.2 9 Norte 15 Norte 0 -- -- 67
2019-06-14 09:00:00 14.3 3 Nordeste 10 Noroeste 0 -- -- 73
2019-06-14 08:00:00 14.3 3 Norte 5 Sur 0 -- -- 70
2019-06-14 07:00:00 10 7 Nordeste 13 Norte 0 -- -- 86
2019-06-14 06:00:00 9.8 5 Este 10 Sudeste 0 -- -- 95
2019-06-14 05:00:00 10.7 4 Este 8 Nordeste 0 -- -- 93
2019-06-14 04:00:00 10.8 3 Sur 7 Oeste 0 -- -- 82
2019-06-14 03:00:00 10.6 4 Noroeste 5 Norte 0 -- -- 83
2019-06-14 02:00:00 10.6 3 Sudoeste 11 Oeste 0 -- -- 89
2019-06-14 01:00:00 11.5 5 Norte 13 Nordeste 0 -- -- 90
2019-06-14 00:00:00 11.5 3 Este 9 Sudeste 0 -- -- 88
2019-06-13 23:00:00 11.3 2 Sudoeste 12 Oeste 0 -- -- 86
2019-06-13 22:00:00 11.4 5 Oeste 10 Noroeste 0 -- -- 93
2019-06-13 21:00:00 12.6 5 Noroeste 14 Noroeste 0 -- -- 89
2019-06-13 20:00:00 15.3 8 Noroeste 17 Noroeste 0 -- -- 73
2019-06-13 19:00:00 16.5 10 Noroeste 24 Norte 0 -- -- 70
2019-06-13 18:00:00 18.4 13 Norte 27 Norte 0 -- -- 62
2019-06-13 17:00:00 19.4 14 Noroeste 29 Noroeste 0 -- -- 59
2019-06-13 16:00:00 19.4 15 Noroeste 29 Norte 0 -- -- 58
2019-06-13 15:00:00 19.4 15 Noroeste 30 Norte 0 -- -- 54
2019-06-13 14:00:00 18.1 17 Norte 32 Noroeste 0 -- -- 58
2019-06-13 13:00:00 17.6 12 Noroeste 27 Noroeste 0 -- -- 66
2019-06-13 12:00:00 16.6 13 Noroeste 27 Noroeste 0 -- -- 67
2019-06-13 11:00:00 13.5 9 Noroeste 24 Noroeste 0 -- -- 93
2019-06-13 10:00:00 12.1 9 Noroeste 21 Oeste 0.2 -- -- 100
2019-06-13 09:00:00 11.2 10 Noroeste 18 Noroeste 0 -- -- 100
2019-06-13 08:00:00 10.7 12 Oeste 22 Noroeste 0 -- -- 99
2019-06-13 07:00:00 11.1 12 Noroeste 24 Noroeste 0 -- -- 99
2019-06-13 06:00:00 11.2 13 Noroeste 24 Noroeste 0 -- -- 99
2019-06-13 05:00:00 11.1 13 Noroeste 25 Oeste 0 -- -- 98
2019-06-13 04:00:00 10.9 15 Noroeste 26 Noroeste 0.2 -- -- 97
2019-06-13 03:00:00 10.8 13 Oeste 24 Oeste 0 -- -- 93
2019-06-13 02:00:00 11.1 15 Noroeste 27 Oeste 0 -- -- 98
2019-06-13 01:00:00 11 17 Oeste 28 Oeste 0 -- -- 95
2019-06-13 00:00:00 10.6 17 Oeste 28 Oeste 0 -- -- 98
2019-06-12 23:00:00 11.2 17 Noroeste 36 Oeste 0 -- -- 99
2019-06-12 22:00:00 11.8 17 Noroeste 26 Noroeste 0 -- -- 99
2019-06-12 21:00:00 12.3 11 Noroeste 26 Noroeste 0.2 -- -- 98
2019-06-12 20:00:00 12.6 16 Noroeste 28 Norte 0 -- -- 97
2019-06-12 19:00:00 13.1 14 Noroeste 28 Noroeste 0 -- -- 96
2019-06-12 18:00:00 13.9 14 Noroeste 24 Noroeste 0 -- -- 93
2019-06-12 17:00:00 17.4 14 Noroeste 25 Noroeste 0 -- -- 74
2019-06-12 16:00:00 17.4 13 Noroeste 26 Noroeste 0 -- -- 78
2019-06-12 15:00:00 16.8 13 Noroeste 22 Noroeste 0 -- -- 94
2019-06-12 14:00:00 15.2 11 Noroeste 22 Noroeste 0 -- -- 100
2019-06-12 13:00:00 13 14 Norte 27 Norte 0 -- -- 99
2019-06-12 12:00:00 13.3 15 Noroeste 27 Noroeste 1.4 -- -- 99
2019-06-12 11:00:00 13.3 17 Noroeste 33 Norte 1.2 -- -- 100
2019-06-12 10:00:00 13.4 15 Norte 28 Norte 2.4 -- -- 100
2019-06-12 09:00:00 13.2 9 Noroeste 28 Norte 1.6 -- -- 100
2019-06-12 08:00:00 12.4 9 Noroeste 27 Noroeste 0 -- -- 100
2019-06-12 07:00:00 12.5 11 Norte 27 Norte 0.4 -- -- 100
2019-06-12 06:00:00 12.6 12 Norte 28 Norte 0.6 -- -- 99
2019-06-12 05:00:00 12.5 14 Norte 30 Noroeste 1.8 -- -- 99
2019-06-12 04:00:00 12.7 12 Noroeste 25 Noroeste 1 -- -- 99
2019-06-12 03:00:00 12.9 12 Norte 26 Norte 1.8 -- -- 99
2019-06-12 02:00:00 12.6 10 Noroeste 26 Noroeste 0.6 -- -- 99
2019-06-12 01:00:00 12.7 10 Noroeste 24 Noroeste 0.8 -- -- 99
2019-06-12 00:00:00 12.6 14 Noroeste 30 Noroeste 0 -- -- 99
2019-06-11 23:00:00 12.8 14 Noroeste 28 Noroeste 0.2 -- -- 99
2019-06-11 22:00:00 12.7 10 Oeste 20 Norte 0 -- -- 98
2019-06-11 21:00:00 12.7 9 Noroeste 23 Noroeste 0 -- -- 98
2019-06-11 20:00:00 12.8 10 Noroeste 21 Noroeste 0 -- -- 97
2019-06-11 19:00:00 13.4 11 Noroeste 26 Norte 0 -- -- 96
2019-06-11 18:00:00 13.7 14 Noroeste 30 Noroeste 0 -- -- 97
2019-06-11 17:00:00 14.2 12 Norte 22 Norte 0.2 -- -- 96
2019-06-11 16:00:00 14.6 10 Noroeste 25 Norte 0 -- -- 95
2019-06-11 15:00:00 14.4 10 Noroeste 25 Norte 0 -- -- 96
2019-06-11 14:00:00 14.3 15 Noroeste 29 Noroeste 0.6 -- -- 97
2019-06-11 13:00:00 14.2 15 Norte 29 Norte 0.4 -- -- 98
2019-06-11 12:00:00 13.8 12 Noroeste 24 Noroeste 0.2 -- -- 98
2019-06-11 11:00:00 12.8 8 Noroeste 22 Noroeste 0.2 -- -- 99
2019-06-11 10:00:00 12 11 Noroeste 29 Noroeste 0 -- -- 99
2019-06-11 09:00:00 11.7 16 Noroeste 29 Noroeste 0 -- -- 99
2019-06-11 08:00:00 11.6 11 Noroeste 27 Norte 0.2 -- -- 99
2019-06-11 07:00:00 11.5 13 Noroeste 25 Norte 0.2 -- -- 99
2019-06-11 06:00:00 11.3 8 Oeste 28 Norte 0 -- -- 98
2019-06-11 05:00:00 11.2 9 Oeste 22 Noroeste 0 -- -- 98
2019-06-11 04:00:00 11.4 9 Noroeste 21 Noroeste 0 -- -- 98
2019-06-11 03:00:00 11.6 14 Noroeste 24 Norte 0 -- -- 98
2019-06-11 02:00:00 11.7 12 Noroeste 24 Norte 0 -- -- 98
2019-06-11 01:00:00 11.8 9 Noroeste 23 Noroeste 0 -- -- 97
2019-06-11 00:00:00 12.1 13 Noroeste 22 Noroeste 0 -- -- 97
2019-06-10 23:00:00 12.3 6 Noroeste 15 Norte 0 -- -- 96
2019-06-10 22:00:00 12.4 5 Noroeste 17 Norte 0 -- -- 96
2019-06-10 21:00:00 12.5 5 Noroeste 17 Norte 0 -- -- 95
2019-06-10 20:00:00 13.7 8 Noroeste 21 Norte 0 -- -- 91
2019-06-10 19:00:00 14.4 5 Noroeste 22 Norte 0 -- -- 81
2019-06-10 18:00:00 16.6 12 Norte 27 Norte 0 -- -- 73
2019-06-10 17:00:00 16.8 12 Norte 23 Norte 0 -- -- 69
2019-06-10 16:00:00 15.6 13 Noroeste 23 Noroeste 0 -- -- 79
2019-06-10 15:00:00 18.2 13 Norte 25 Noroeste 0 -- -- 66
2019-06-10 14:00:00 17.6 12 Noroeste 24 Norte 0 -- -- 68
2019-06-10 13:00:00 16.7 10 Norte 23 Norte 0 -- -- 75
2019-06-10 12:00:00 14.6 9 Norte 20 Norte 0 -- -- 83
2019-06-10 11:00:00 13.9 5 Norte 15 Norte 0 -- -- 86
2019-06-10 10:00:00 12.5 9 Norte 17 Norte 0 -- -- 93
2019-06-10 09:00:00 12.2 3 Oeste 15 Norte 0 -- -- 92
2019-06-10 08:00:00 11.6 5 Nordeste 12 Norte 0 -- -- 96
2019-06-10 07:00:00 11.4 4 Sur 12 Norte 0 -- -- 95
2019-06-10 06:00:00 11.5 3 Nordeste 15 Norte 0 -- -- 95
2019-06-10 05:00:00 11.5 3 Nordeste 9 Nordeste 0 -- -- 94
2019-06-10 04:00:00 11.7 0 Calma 9 Norte 0 -- -- 94
2019-06-10 03:00:00 11.8 0 Calma 14 Sudeste 0 -- -- 94
2019-06-10 02:00:00 11.9 3 Norte 8 Noroeste 0 -- -- 94
2019-06-10 01:00:00 12.1 2 Nordeste 13 Norte 0 -- -- 95
2019-06-10 00:00:00 12.3 4 Este 13 Norte 0 -- -- 95
2019-06-09 23:00:00 12.1 4 Sur 15 Norte 0 -- -- 92
2019-06-09 22:00:00 12.2 6 Sudoeste 14 Sur 0 -- -- 91
2019-06-09 21:00:00 12.7 2 Este 12 Este 0 -- -- 87
2019-06-09 20:00:00 13.5 3 Noroeste 15 Norte 0 -- -- 81
2019-06-09 19:00:00 15.3 9 Norte 18 Norte 0 -- -- 72
2019-06-09 18:00:00 17.1 8 Norte 20 Noroeste 0 -- -- 64
2019-06-09 17:00:00 17.9 11 Norte 19 Norte 0 -- -- 61
2019-06-09 16:00:00 18.8 9 Norte 23 Noroeste 0 -- -- 62
2019-06-09 15:00:00 18 8 Este 21 Noroeste 0 -- -- 61
2019-06-09 14:00:00 16.6 7 Norte 20 Nordeste 0 -- -- 69
2019-06-09 13:00:00 15.1 8 Norte 21 Norte 0 -- -- 73
2019-06-09 12:00:00 14.2 10 Norte 17 Norte 0 -- -- 76
2019-06-09 11:00:00 13 8 Este 16 Este 0 -- -- 89
2019-06-09 10:00:00 12.5 2 Este 11 Sudeste 0 -- -- 89
2019-06-09 09:00:00 12.4 4 Este 12 Nordeste 0 -- -- 84
2019-06-09 08:00:00 11 4 Nordeste 12 Este 0 -- -- 95
2019-06-09 07:00:00 10.7 3 Sudeste 13 Nordeste 0 -- -- 91
2019-06-09 06:00:00 10.8 6 Norte 17 Norte 0 -- -- 93
2019-06-09 05:00:00 11 3 Norte 15 Norte 0 -- -- 93
2019-06-09 04:00:00 10.9 2 Sudoeste 10 Nordeste 0 -- -- 94
2019-06-09 03:00:00 10.6 2 Oeste 14 Norte 0 -- -- 95
2019-06-09 02:00:00 11 3 Noroeste 16 Norte 0 -- -- 95
2019-06-09 01:00:00 11.2 3 Noroeste 13 Este 0 -- -- 95
2019-06-09 00:00:00 11.7 5 Norte 12 Noroeste 0 -- -- 95
2019-06-08 23:00:00 12 4 Norte 18 Norte 0 -- -- 96
2019-06-08 22:00:00 12.1 6 Norte 15 Norte 0 -- -- 95
2019-06-08 21:00:00 12 9 Norte 19 Norte 0.2 -- -- 94
2019-06-08 20:00:00 13.6 4 Noroeste 16 Noroeste 0 -- -- 89
2019-06-08 19:00:00 17.6 10 Norte 22 Noroeste 0 -- -- 70
2019-06-08 18:00:00 18.3 13 Noroeste 22 Noroeste 0 -- -- 66
2019-06-08 17:00:00 18 14 Noroeste 22 Noroeste 0 -- -- 67
2019-06-08 16:00:00 16.4 10 Norte 21 Norte 0 -- -- 82
2019-06-08 15:00:00 15 10 Norte 18 Norte 0 -- -- 94
2019-06-08 14:00:00 14.5 4 Norte 16 Nordeste 0.2 -- -- 92
2019-06-08 13:00:00 15.2 6 Norte 14 Norte 0 -- -- 90
2019-06-08 12:00:00 14.6 7 Norte 14 Norte 0 -- -- 95
2019-06-08 11:00:00 13.6 6 Norte 15 Norte 0 -- -- 97
2019-06-08 10:00:00 13.1 5 Norte 15 Norte 0.4 -- -- 97
2019-06-08 09:00:00 12.8 4 Nordeste 12 Este 0.6 -- -- 98
2019-06-08 08:00:00 12.6 5 Norte 14 Nordeste 0 -- -- 98
2019-06-08 07:00:00 12.6 8 Nordeste 19 Nordeste 0.4 -- -- 98
2019-06-08 06:00:00 13 2 Este 17 Este 0 -- -- 98
2019-06-08 05:00:00 12.7 10 Nordeste 25 Nordeste 1 -- -- 98
2019-06-08 04:00:00 13.5 8 Nordeste 19 Este 0.4 -- -- 98
2019-06-08 03:00:00 13.4 6 Norte 15 Norte 0 -- -- 97
2019-06-08 02:00:00 13.8 6 Noroeste 16 Norte 0.4 -- -- 96
2019-06-08 01:00:00 14 5 Noroeste 12 Oeste 0 -- -- 94
2019-06-08 00:00:00 13.9 3 Oeste 11 Sudoeste 0 -- -- 93
2019-06-07 23:00:00 13.9 3 Sur 13 Noroeste 0 -- -- 90
2019-06-07 22:00:00 14.2 5 Oeste 9 Noroeste 0 -- -- 88
2019-06-07 21:00:00 14.2 2 Nordeste 12 Norte 0 -- -- 87
2019-06-07 20:00:00 15.8 3 Este 13 Sudeste 0 -- -- 79
2019-06-07 19:00:00 18.3 3 Nordeste 14 Norte 0 -- -- 71
2019-06-07 18:00:00 17.6 6 Norte 16 Norte 0 -- -- 70
2019-06-07 17:00:00 17.9 8 Norte 18 Norte 0 -- -- 71
2019-06-07 16:00:00 18.7 10 Norte 19 Norte 0 -- -- 67
2019-06-07 15:00:00 16.9 9 Norte 15 Norte 0 -- -- 75
2019-06-07 14:00:00 18.3 6 Este 18 Nordeste 0 -- -- 68
2019-06-07 13:00:00 17.1 7 Norte 16 Nordeste 0 -- -- 70
2019-06-07 12:00:00 16.4 4 Nordeste 16 Noroeste 0 -- -- 74
2019-06-07 11:00:00 13.9 3 Noroeste 17 Norte 0 -- -- 81
2019-06-07 10:00:00 12.5 8 Norte 18 Norte 0 -- -- 93
2019-06-07 09:00:00 12.2 4 Noroeste 13 Norte 0 -- -- 92
2019-06-07 08:00:00 11.5 5 Noroeste 17 Oeste 0 -- -- 95
2019-06-07 07:00:00 11.3 8 Noroeste 15 Oeste 0 -- -- 95
2019-06-07 06:00:00 11.3 6 Noroeste 15 Oeste 0 -- -- 94
2019-06-07 05:00:00 10.9 5 Sudoeste 14 Noroeste 0 -- -- 94
2019-06-07 04:00:00 11 7 Oeste 15 Norte 0 -- -- 93
2019-06-07 03:00:00 11.2 7 Oeste 19 Noroeste 0 -- -- 95
2019-06-07 02:00:00 11.4 14 Norte 24 Noroeste 0 -- -- 95
2019-06-07 01:00:00 11.6 5 Noroeste 15 Oeste 0 -- -- 91
2019-06-07 00:00:00 11.5 7 Noroeste 18 Noroeste 0 -- -- 91
2019-06-06 23:00:00 11.5 6 Noroeste 17 Noroeste 0 -- -- 92
2019-06-06 22:00:00 11.5 8 Noroeste 22 Noroeste 0 -- -- 90
2019-06-06 21:00:00 11.9 12 Noroeste 25 Noroeste 0 -- -- 88
2019-06-06 20:00:00 13 10 Noroeste 21 Noroeste 0 -- -- 78
2019-06-06 19:00:00 14.7 12 Noroeste 22 Noroeste 0 -- -- 70
2019-06-06 18:00:00 17.2 10 Noroeste 22 Noroeste 0 -- -- 61
2019-06-06 17:00:00 15.8 10 Noroeste 21 Noroeste 0 -- -- 71
2019-06-06 16:00:00 13 10 Norte 19 Noroeste 0 -- -- 88
2019-06-06 15:00:00 14.9 9 Norte 22 Norte 0 -- -- 76
2019-06-06 14:00:00 16.6 10 Noroeste 22 Noroeste 0 -- -- 69
2019-06-06 13:00:00 15.1 10 Norte 19 Noroeste 0 -- -- 77
2019-06-06 12:00:00 14.7 6 Norte 24 Noroeste 0 -- -- 77
2019-06-06 11:00:00 11.8 7 Norte 19 Nordeste 0.2 -- -- 95
2019-06-06 10:00:00 12.2 5 Norte 12 Noroeste 0 -- -- 89
2019-06-06 09:00:00 12.6 3 Oeste 17 Norte 0 -- -- 95
2019-06-06 08:00:00 11.1 9 Norte 22 Norte 0 -- -- 98
2019-06-06 07:00:00 11.1 7 Norte 19 Norte 0 -- -- 98
2019-06-06 06:00:00 11.3 6 Norte 19 Norte 0 -- -- 98
2019-06-06 05:00:00 11.2 5 Oeste 17 Norte 0 -- -- 98
2019-06-06 04:00:00 11.4 12 Norte 21 Noroeste 0 -- -- 98
2019-06-06 03:00:00 11.8 10 Norte 21 Norte 0 -- -- 98
2019-06-06 02:00:00 11.9 10 Norte 22 Norte 0 -- -- 98
2019-06-06 01:00:00 12 14 Norte 28 Norte 0.2 -- -- 97
2019-06-06 00:00:00 12.6 6 Norte 26 Norte 0.2 -- -- 97
2019-06-05 23:00:00 12.6 5 Norte 17 Nordeste 0 -- -- 97
2019-06-05 22:00:00 12.6 9 Norte 22 Norte 0.2 -- -- 96
2019-06-05 21:00:00 13.5 6 Norte 21 Norte 0 -- -- 95
2019-06-05 20:00:00 13.7 9 Noroeste 19 Norte 0 -- -- 93
2019-06-05 19:00:00 14.2 13 Norte 23 Norte 0 -- -- 91
2019-06-05 18:00:00 15 12 Noroeste 20 Norte 0 -- -- 85
2019-06-05 17:00:00 14.5 12 Norte 23 Norte 0 -- -- 89
2019-06-05 16:00:00 16.1 8 Norte 20 Norte 0 -- -- 81
2019-06-05 15:00:00 17.6 9 Norte 18 Norte 0 -- -- 74
2019-06-05 14:00:00 17.8 10 Norte 17 Noroeste 0 -- -- 73
2019-06-05 13:00:00 17.2 8 Norte 17 Norte 0 -- -- 75
2019-06-05 12:00:00 15.6 8 Norte 17 Norte 0 -- -- 86
2019-06-05 11:00:00 15.7 8 Norte 19 Norte 0 -- -- 86
2019-06-05 10:00:00 16.1 3 Norte 14 Norte 0 -- -- 84
2019-06-05 09:00:00 14.2 4 Norte 13 Nordeste 0 -- -- 94
2019-06-05 08:00:00 13.4 6 Nordeste 16 Nordeste 0 -- -- 94
2019-06-05 07:00:00 13.5 4 Nordeste 18 Nordeste 0 -- -- 94
2019-06-05 06:00:00 13.4 4 Norte 19 Nordeste 0 -- -- 94
2019-06-05 05:00:00 13.5 8 Noroeste 19 Norte 0 -- -- 95
2019-06-05 04:00:00 13.7 6 Noroeste 18 Oeste 0 -- -- 95
2019-06-05 03:00:00 13.5 9 Oeste 28 Noroeste 0 -- -- 92
2019-06-05 02:00:00 13.6 10 Noroeste 21 Noroeste 0 -- -- 94
2019-06-05 01:00:00 13.9 8 Noroeste 15 Noroeste 0 -- -- 91
2019-06-05 00:00:00 13.9 7 Oeste 16 Oeste 0 -- -- 90
2019-06-04 23:00:00 13.3 10 Noroeste 17 Oeste 0 -- -- 89
2019-06-04 22:00:00 15.9 12 Oeste 19 Oeste 0 -- -- 46
2019-06-04 21:00:00 15.7 8 Oeste 12 Oeste 0 -- -- 65
2019-06-04 20:00:00 20.5 7 Noroeste 12 Noroeste 0 -- -- 40
2019-06-04 19:00:00 22.8 8 Noroeste 17 Noroeste 0 -- -- 36
2019-06-04 18:00:00 24.1 8 Noroeste 15 Oeste 0 -- -- 30
2019-06-04 17:00:00 23.7 10 Norte 17 Norte 0 -- -- 42
2019-06-04 16:00:00 24.4 9 Noroeste 17 Noroeste 0 -- -- 39
2019-06-04 15:00:00 26.5 8 Norte 16 Norte 0 -- -- 27
2019-06-04 14:00:00 26.1 7 Norte 14 Norte 0 -- -- 34
2019-06-04 13:00:00 26.4 6 Este 17 Nordeste 0 -- -- 24
2019-06-04 12:00:00 26.3 6 Este 15 Este 0 -- -- 27
2019-06-04 11:00:00 24.6 6 Este 13 Nordeste 0 -- -- 27
2019-06-04 10:00:00 24.3 2 Oeste 8 Noroeste 0 -- -- 25
2019-06-04 09:00:00 21.9 5 Norte 7 Nordeste 0 -- -- 25
2019-06-04 08:00:00 20 2 Noroeste 6 Sudoeste 0 -- -- 28
2019-06-04 07:00:00 18.4 4 Noroeste 12 Noroeste 0 -- -- 31
2019-06-04 06:00:00 18.5 6 Noroeste 13 Norte 0 -- -- 24
2019-06-04 05:00:00 18.7 6 Noroeste 8 Noroeste 0 -- -- 23
2019-06-04 04:00:00 18.8 5 Norte 8 Norte 0 -- -- 22
2019-06-04 03:00:00 19.3 0 Calma 5 Nordeste 0 -- -- 27
2019-06-04 02:00:00 20.7 0 Calma 10 Nordeste 0 -- -- 23
2019-06-04 01:00:00 20.6 4 Sudoeste 11 Norte 0 -- -- 27
2019-06-04 00:00:00 21.4 3 Oeste 9 Noroeste 0 -- -- 25
2019-06-03 23:00:00 20.8 3 Sudoeste 9 Norte 0 -- -- 30
2019-06-03 22:00:00 20.7 4 Norte 9 Norte 0 -- -- 31
2019-06-03 21:00:00 21.4 3 Norte 8 Norte 0 -- -- 28
2019-06-03 20:00:00 24.8 3 Noroeste 13 Norte 0 -- -- 26
2019-06-03 19:00:00 27.6 5 Norte 16 Noroeste 0 -- -- 24
2019-06-03 18:00:00 28.1 8 Norte 16 Norte 0 -- -- 24
2019-06-03 17:00:00 28.4 9 Norte 21 Norte 0 -- -- 21
2019-06-03 16:00:00 28.6 11 Norte 22 Norte 0 -- -- 21
2019-06-03 15:00:00 30 8 Norte 16 Norte 0 -- -- 18
2019-06-03 14:00:00 28.6 9 Norte 18 Norte 0 -- -- 23
2019-06-03 13:00:00 29.3 7 Norte 13 Norte 0 -- -- 22
2019-06-03 12:00:00 29.3 5 Oeste 11 Sudeste 0 -- -- 23
2019-06-03 11:00:00 31.4 7 Este 13 Sudeste 0 -- -- 21
2019-06-03 10:00:00 28.7 5 Sudeste 14 Sudeste 0 -- -- 22
2019-06-03 09:00:00 24 11 Sudeste 18 Este 0 -- -- 28
2019-06-03 08:00:00 19.4 15 Este 20 Sudeste 0 -- -- 31
2019-06-03 07:00:00 19 13 Sudeste 24 Sudeste 0 -- -- 29
2019-06-03 06:00:00 21.1 12 Sudeste 23 Sudeste 0 -- -- 20
2019-06-03 05:00:00 20.2 6 Sudeste 19 Este 0 -- -- 24
2019-06-03 04:00:00 19.5 13 Este 19 Sudeste 0 -- -- 31
2019-06-03 03:00:00 20.2 13 Sudeste 27 Este 0 -- -- 31
2019-06-03 02:00:00 20.7 15 Sudeste 27 Sudeste 0 -- -- 32
2019-06-03 01:00:00 20.7 14 Sudeste 27 Sudeste 0 -- -- 32
2019-06-03 00:00:00 21.2 14 Sudeste 26 Sudeste 0 -- -- 32
2019-06-02 23:00:00 21.4 12 Este 28 Sudeste 0 -- -- 32
2019-06-02 22:00:00 20.7 13 Sudeste 21 Sudeste 0 -- -- 31
2019-06-02 21:00:00 22.1 8 Este 16 Este 0 -- -- 16
2019-06-02 20:00:00 25.1 9 Este 13 Este 0 -- -- 21
2019-06-02 19:00:00 28.9 7 Sudeste 14 Este 0 -- -- 28
2019-06-02 18:00:00 29.3 10 Este 19 Este 0 -- -- 29
2019-06-02 17:00:00 30.5 11 Este 18 Sudeste 0 -- -- 33
2019-06-02 16:00:00 31.9 12 Este 24 Este 0 -- -- 30
2019-06-02 15:00:00 30.8 17 Este 31 Este 0 -- -- 26
2019-06-02 14:00:00 31.3 15 Sudeste 31 Sudeste 0 -- -- 28
2019-06-02 13:00:00 32 20 Sudeste 31 Este 0 -- -- 29
2019-06-02 12:00:00 31.3 18 Este 28 Sudeste 0 -- -- 23
2019-06-02 11:00:00 30.1 19 Este 30 Este 0 -- -- 21
2019-06-02 10:00:00 29.8 12 Este 23 Sudeste 0 -- -- 19
2019-06-02 09:00:00 27.2 16 Sudeste 22 Sudeste 0 -- -- 16
2019-06-02 08:00:00 23.5 12 Sudeste 17 Sudeste 0 -- -- 27
2019-06-02 07:00:00 21.4 13 Sudeste 21 Sudeste 0 -- -- 25
2019-06-02 06:00:00 23.1 13 Sudeste 27 Sudeste 0 -- -- 26
2019-06-02 05:00:00 23.2 14 Sudeste 31 Sudeste 0 -- -- 29
2019-06-02 04:00:00 23.3 17 Sudeste 34 Sur 0 -- -- 28
2019-06-02 03:00:00 22.4 23 Sudeste 35 Sudeste 0 -- -- 31
2019-06-02 02:00:00 21 19 Sudeste 31 Sudeste 0 -- -- 36
2019-06-02 01:00:00 19.5 18 Sudeste 31 Sudeste 0 -- -- 43
2019-06-02 00:00:00 18 19 Sudeste 28 Sudeste 0 -- -- 55
2019-06-01 23:00:00 17.4 19 Sudeste 22 Sudeste 0 -- -- 58
2019-06-01 22:00:00 20.5 5 Este 13 Nordeste 0 -- -- 42
2019-06-01 21:00:00 22.1 3 Sudeste 12 Sudeste 0 -- -- 48
2019-06-01 20:00:00 27.9 9 Sudeste 10 Este 0 -- -- 41
2019-06-01 19:00:00 26.3 2 Nordeste 11 Sudeste 0 -- -- 52
2019-06-01 18:00:00 26.3 3 Este 8 Noroeste 0 -- -- 55
2019-06-01 17:00:00 24.4 5 Norte 8 Norte 0 -- -- 59
2019-06-01 16:00:00 25.5 5 Norte 10 Noroeste 0 -- -- 56
2019-06-01 15:00:00 26 5 Norte 10 Noroeste 0 -- -- 56
2019-06-01 14:00:00 26.1 6 Norte 12 Noroeste 0 -- -- 56
2019-06-01 13:00:00 25.6 4 Norte 9 Norte 0 -- -- 53
2019-06-01 12:00:00 24 4 Noroeste 9 Noroeste 0 -- -- 55
2019-06-01 11:00:00 22.2 4 Noroeste 9 Norte 0 -- -- 57
2019-06-01 10:00:00 17.9 4 Oeste 9 Norte 0 -- -- 76
2019-06-01 09:00:00 16 7 Norte 12 Norte 0 -- -- 83
2019-06-01 08:00:00 15.2 5 Noroeste 22 Sudeste 0 -- -- 81
2019-06-01 07:00:00 21.8 16 Sudeste 26 Sur 0 -- -- 32
2019-06-01 06:00:00 22.7 18 Sudeste 37 Sudeste 0 -- -- 30
2019-06-01 05:00:00 19.6 20 Sudeste 24 Sudeste 0 -- -- 38
2019-06-01 04:00:00 20.1 12 Este 13 Este 0 -- -- 39
2019-06-01 03:00:00 21.6 0 Calma 8 Sur 0 -- -- 13
2019-06-01 02:00:00 23.4 5 Sur 7 Sur 0 -- -- 12
2019-06-01 01:00:00 21.4 3 Oeste 8 Norte 0 -- -- 19
2019-06-01 00:00:00 21.3 5 Oeste 13 Oeste 0 -- -- 20
2019-05-31 23:00:00 20.3 9 Oeste 13 Oeste 0 -- -- 24
2019-05-31 22:00:00 20 12 Oeste 15 Oeste 0 -- -- 33
2019-05-31 21:00:00 20 11 Oeste 16 Noroeste 0 -- -- 40
2019-05-31 20:00:00 23 9 Noroeste 14 Noroeste 0 -- -- 41
2019-05-31 19:00:00 26.6 8 Noroeste 12 Noroeste 0 -- -- 40
2019-05-31 18:00:00 26.2 6 Noroeste 12 Noroeste 0 -- -- 50
2019-05-31 17:00:00 24 7 Noroeste 12 Norte 0 -- -- 57
2019-05-31 16:00:00 24.6 6 Noroeste 12 Noroeste 0 -- -- 53
2019-05-31 15:00:00 25.3 5 Noroeste 10 Noroeste 0 -- -- 52
2019-05-31 14:00:00 22.8 5 Norte 11 Norte 0 -- -- 62
2019-05-31 13:00:00 24.3 5 Norte 9 Norte 0 -- -- 56
2019-05-31 12:00:00 27.2 5 Norte 9 Norte 0 -- -- 36
2019-05-31 11:00:00 26.7 4 Norte 7 Norte 0 -- -- 31
2019-05-31 10:00:00 27.1 5 Nordeste 6 Nordeste 0 -- -- 21
2019-05-31 09:00:00 27.3 3 Noroeste 5 Sudoeste 0 -- -- 19
2019-05-31 08:00:00 21.9 5 Oeste 14 Sudeste 0 -- -- 18
2019-05-31 07:00:00 15.5 13 Sudeste 16 Sudeste 0 -- -- 25
2019-05-31 06:00:00 16.1 12 Sudeste 15 Sudeste 0 -- -- 27
2019-05-31 05:00:00 16.7 10 Sudeste 15 Sudeste 0 -- -- 25
2019-05-31 04:00:00 18.1 12 Este 16 Este 0 -- -- 25
2019-05-31 03:00:00 19.7 4 Nordeste 8 Sudeste 0 -- -- 16
2019-05-31 02:00:00 19.3 5 Sudoeste 9 Sudoeste 0 -- -- 18
2019-05-31 01:00:00 21.5 4 Sudeste 9 Sur 0 -- -- 14
2019-05-31 00:00:00 16.3 4 Oeste 9 Oeste 0 -- -- 47
2019-05-30 23:00:00 19.1 4 Oeste 7 Oeste 0 -- -- 20
2019-05-30 22:00:00 18.6 5 Noroeste 9 Oeste 0 -- -- 23
2019-05-30 21:00:00 17.7 8 Oeste 9 Oeste 0 -- -- 47
2019-05-30 20:00:00 19.4 5 Oeste 9 Norte 0 -- -- 69
2019-05-30 19:00:00 20.7 5 Noroeste 11 Noroeste 0 -- -- 64
2019-05-30 18:00:00 22.6 6 Noroeste 13 Noroeste 0 -- -- 58
2019-05-30 17:00:00 23.1 8 Noroeste 13 Noroeste 0 -- -- 57
2019-05-30 16:00:00 22.4 8 Noroeste 14 Noroeste 0 -- -- 59
2019-05-30 15:00:00 22.4 7 Noroeste 15 Noroeste 0 -- -- 59
2019-05-30 14:00:00 21.5 7 Noroeste 17 Noroeste 0 -- -- 63
2019-05-30 13:00:00 21.9 7 Noroeste 13 Noroeste 0 -- -- 61
2019-05-30 12:00:00 21.3 5 Noroeste 10 Noroeste 0 -- -- 61
2019-05-30 11:00:00 21.2 5 Norte 9 Norte 0 -- -- 60
2019-05-30 10:00:00 21.4 2 Noroeste 6 Oeste 0 -- -- 52
2019-05-30 09:00:00 23.1 3 Norte 6 Este 0 -- -- 32
2019-05-30 08:00:00 20.1 5 Sudeste 6 Sudeste 0 -- -- 26
2019-05-30 07:00:00 17.7 4 Norte 6 Norte 0 -- -- 28
2019-05-30 06:00:00 16.5 4 Norte 9 Sudeste 0 -- -- 31
2019-05-30 05:00:00 17.6 6 Sudeste 10 Sudeste 0 -- -- 24
2019-05-30 04:00:00 18.2 5 Sudeste 11 Sudeste 0 -- -- 24
2019-05-30 03:00:00 17.4 3 Sur 10 Sudoeste 0 -- -- 29
2019-05-30 02:00:00 16.1 4 Sur 9 Sudeste 0 -- -- 33
2019-05-30 01:00:00 18.8 5 Sur 10 Sudeste 0 -- -- 23
2019-05-30 00:00:00 17.3 3 Sur 9 Sur 0 -- -- 22
2019-05-29 23:00:00 17.1 6 Sudoeste 9 Sudoeste 0 -- -- 26
2019-05-29 22:00:00 18.3 3 Oeste 9 Oeste 0 -- -- 20
2019-05-29 21:00:00 16.4 7 Oeste 12 Oeste 0 -- -- 26
2019-05-29 20:00:00 17.3 5 Noroeste 10 Noroeste 0 -- -- 75
2019-05-29 19:00:00 20.8 6 Noroeste 11 Noroeste 0 -- -- 62
2019-05-29 18:00:00 21.3 6 Noroeste 12 Noroeste 0 -- -- 60
2019-05-29 17:00:00 22.1 6 Noroeste 13 Noroeste 0 -- -- 57
2019-05-29 16:00:00 22.1 6 Norte 12 Noroeste 0 -- -- 57
2019-05-29 15:00:00 22.5 6 Norte 14 Noroeste 0 -- -- 56
2019-05-29 14:00:00 21.1 6 Noroeste 13 Noroeste 0 -- -- 60
2019-05-29 13:00:00 21.2 6 Noroeste 12 Noroeste 0 -- -- 62
2019-05-29 12:00:00 20 5 Noroeste 10 Noroeste 0 -- -- 66
2019-05-29 11:00:00 19.9 4 Norte 8 Noroeste 0 -- -- 66
2019-05-29 10:00:00 16.5 4 Noroeste 9 Noroeste 0 -- -- 77
2019-05-29 09:00:00 12.8 4 Noroeste 9 Noroeste 0 -- -- 92
2019-05-29 08:00:00 11.1 5 Norte 10 Sudoeste 0 -- -- 92
2019-05-29 07:00:00 14.2 7 Sudoeste 11 Sudoeste 0 -- -- 42
2019-05-29 06:00:00 15.9 6 Sudoeste 8 Sudoeste 0 -- -- 34
2019-05-29 05:00:00 16.6 3 Sudoeste 7 Sudoeste 0 -- -- 44
2019-05-29 04:00:00 10.9 5 Sudoeste 8 Sudoeste 0 -- -- 88
2019-05-29 03:00:00 11.2 4 Noroeste 9 Noroeste 0 -- -- 97
2019-05-29 02:00:00 11.8 5 Noroeste 10 Noroeste 0 -- -- 97
2019-05-29 01:00:00 12.3 6 Noroeste 11 Oeste 0 -- -- 97
2019-05-29 00:00:00 12.8 6 Noroeste 14 Oeste 0 -- -- 96
2019-05-28 23:00:00 13 7 Noroeste 14 Noroeste 0 -- -- 95
2019-05-28 22:00:00 13.1 7 Noroeste 13 Noroeste 0 -- -- 94
2019-05-28 21:00:00 13.8 8 Noroeste 13 Noroeste 0 -- -- 93
2019-05-28 20:00:00 14.9 8 Noroeste 13 Noroeste 0 -- -- 88
2019-05-28 19:00:00 19.1 7 Noroeste 13 Norte 0 -- -- 72
2019-05-28 18:00:00 20.4 8 Noroeste 12 Oeste 0 -- -- 67
2019-05-28 17:00:00 21.6 6 Norte 15 Norte 0 -- -- 62
2019-05-28 16:00:00 21.9 6 Norte 12 Norte 0 -- -- 61
2019-05-28 15:00:00 21.4 6 Norte 12 Noroeste 0 -- -- 63
2019-05-28 14:00:00 21.2 7 Norte 13 Nordeste 0 -- -- 66
2019-05-28 13:00:00 21.8 6 Norte 12 Norte 0 -- -- 63
2019-05-28 12:00:00 20.2 6 Norte 13 Norte 0 -- -- 69
2019-05-28 11:00:00 20.6 4 Norte 9 Norte 0 -- -- 67
2019-05-28 10:00:00 18.5 4 Norte 9 Sudeste 0 -- -- 73
2019-05-28 09:00:00 16.5 3 Sudeste 8 Sudeste 0 -- -- 91
2019-05-28 08:00:00 12.5 4 Noroeste 9 Noroeste 0 -- -- 97
2019-05-28 07:00:00 11.6 6 Norte 9 Norte 0 -- -- 95
2019-05-28 06:00:00 11.9 4 Norte 8 Norte 0 -- -- 96
2019-05-28 05:00:00 11.7 3 Sudoeste 9 Norte 0 -- -- 90
2019-05-28 04:00:00 13.1 4 Nordeste 9 Norte 0 -- -- 85
2019-05-28 03:00:00 16.7 5 Sudeste 9 Este 0 -- -- 46
2019-05-28 02:00:00 17.1 6 Sudeste 14 Este 0 -- -- 45
2019-05-28 01:00:00 17.9 3 Sudoeste 8 Sudoeste 0 -- -- 44
2019-05-28 00:00:00 17.8 2 Este 10 Sudoeste 0 -- -- 42
2019-05-27 23:00:00 17.6 4 Sudoeste 10 Sudoeste 0 -- -- 45
2019-05-27 22:00:00 17.8 4 Noroeste 13 Oeste 0 -- -- 43
2019-05-27 21:00:00 17.9 3 Sudoeste 11 Oeste 0 -- -- 44
2019-05-27 20:00:00 20.4 5 Norte 10 Noroeste 0 -- -- 57
2019-05-27 19:00:00 22.5 4 Norte 12 Noroeste 0 -- -- 37
2019-05-27 18:00:00 23.5 7 Norte 15 Norte 0 -- -- 37
2019-05-27 17:00:00 23.8 8 Norte 19 Norte 0 -- -- 43
2019-05-27 16:00:00 23.5 10 Norte 23 Noroeste 0 -- -- 32
2019-05-27 15:00:00 24.2 8 Norte 20 Norte 0 -- -- 37
2019-05-27 14:00:00 24.6 6 Norte 22 Este 0 -- -- 33
2019-05-27 13:00:00 23.9 8 Nordeste 22 Este 0 -- -- 33
2019-05-27 12:00:00 22.9 10 Este 23 Este 0 -- -- 34
2019-05-27 11:00:00 23 10 Este 20 Este 0 -- -- 34
2019-05-27 10:00:00 23.7 6 Este 17 Este 0 -- -- 34
2019-05-27 09:00:00 20.8 8 Sudeste 16 Sudeste 0 -- -- 39
2019-05-27 08:00:00 15.9 9 Sudeste 18 Sudeste 0 -- -- 54
2019-05-27 07:00:00 14 14 Sudeste 22 Sudeste 0 -- -- 58
2019-05-27 06:00:00 14.1 10 Sudeste 26 Sudeste 0 -- -- 55
2019-05-27 05:00:00 15.1 11 Sudeste 23 Este 0 -- -- 48
2019-05-27 04:00:00 15.4 8 Este 19 Este 0 -- -- 47
2019-05-27 03:00:00 15.4 9 Sudeste 15 Sudeste 0 -- -- 57
2019-05-27 02:00:00 15.3 5 Sudeste 10 Sudeste 0 -- -- 54
2019-05-27 01:00:00 15.9 4 Sudoeste 10 Sudoeste 0 -- -- 50
2019-05-27 00:00:00 15.9 3 Nordeste 9 Este 0 -- -- 48
2019-05-26 23:00:00 16.4 4 Sur 13 Norte 0 -- -- 46
2019-05-26 22:00:00 15.9 2 Nordeste 14 Nordeste 0 -- -- 50
2019-05-26 21:00:00 15.8 5 Este 10 Sudeste 0 -- -- 58
2019-05-26 20:00:00 19.8 4 Sudeste 16 Nordeste 0 -- -- 43
2019-05-26 19:00:00 21.8 5 Norte 10 Noroeste 0 -- -- 57
2019-05-26 18:00:00 21.2 4 Norte 9 Norte 0 -- -- 63
2019-05-26 17:00:00 21.7 5 Norte 12 Norte 0 -- -- 64
2019-05-26 16:00:00 21.1 6 Norte 13 Norte 0 -- -- 65
2019-05-26 15:00:00 20.8 7 Norte 18 Norte 0 -- -- 65
2019-05-26 14:00:00 19.8 6 Norte 13 Norte 0 -- -- 71
2019-05-26 13:00:00 19.4 7 Norte 16 Norte 0 -- -- 69
2019-05-26 12:00:00 19.8 6 Norte 12 Norte 0 -- -- 67
2019-05-26 11:00:00 19 4 Norte 9 Norte 0 -- -- 68
2019-05-26 10:00:00 17.2 6 Norte 9 Norte 0 -- -- 73
2019-05-26 09:00:00 15.5 4 Norte 10 Norte 0 -- -- 78
2019-05-26 08:00:00 14.7 3 Noroeste 12 Este 0 -- -- 64
2019-05-26 07:00:00 12.4 5 Este 12 Nordeste 0 -- -- 74
2019-05-26 06:00:00 10.6 5 Noroeste 11 Oeste 0 -- -- 96
2019-05-26 05:00:00 10.6 6 Oeste 13 Oeste 0 -- -- 96
2019-05-26 04:00:00 11.3 10 Oeste 18 Oeste 0 -- -- 95
2019-05-26 03:00:00 11 8 Oeste 20 Noroeste 0 -- -- 97
2019-05-26 02:00:00 11.4 10 Noroeste 22 Oeste 0 -- -- 97
2019-05-26 01:00:00 11.3 10 Noroeste 21 Noroeste 0 -- -- 97
2019-05-26 00:00:00 11.5 14 Noroeste 26 Oeste 0 -- -- 97
2019-05-25 23:00:00 11.5 12 Oeste 24 Oeste 0 -- -- 96
2019-05-25 22:00:00 11.8 13 Oeste 22 Oeste 0 -- -- 95
2019-05-25 21:00:00 12.1 10 Noroeste 18 Norte 0 -- -- 93
2019-05-25 20:00:00 13.9 10 Noroeste 17 Noroeste 0 -- -- 86
2019-05-25 19:00:00 17.4 10 Noroeste 17 Oeste 0 -- -- 74
2019-05-25 18:00:00 18.1 10 Noroeste 17 Norte 0 -- -- 72
2019-05-25 17:00:00 17.9 10 Norte 15 Noroeste 0 -- -- 77
2019-05-25 16:00:00 15.9 8 Noroeste 15 Norte 0 -- -- 90
2019-05-25 15:00:00 16 8 Noroeste 16 Noroeste 0 -- -- 92
2019-05-25 14:00:00 15.7 6 Oeste 16 Norte 0 -- -- 91
2019-05-25 13:00:00 15.3 6 Noroeste 14 Norte 0 -- -- 94
2019-05-25 12:00:00 15.1 5 Oeste 15 Norte 0.2 -- -- 95
2019-05-25 11:00:00 14.1 7 Noroeste 14 Norte 0.2 -- -- 97
2019-05-25 10:00:00 13.9 6 Noroeste 14 Noroeste 0.2 -- -- 98
2019-05-25 09:00:00 13 6 Noroeste 14 Norte 0.2 -- -- 97
2019-05-25 08:00:00 12.4 3 Noroeste 12 Oeste 0.2 -- -- 97
2019-05-25 07:00:00 12.3 3 Sur 12 Sudoeste 0.2 -- -- 97
2019-05-25 06:00:00 12.2 2 Sudoeste 9 Nordeste 0 -- -- 96
2019-05-25 05:00:00 12 6 Sur 15 Norte 0 -- -- 93
2019-05-25 04:00:00 12.4 4 Norte 16 Este 0 -- -- 68
2019-05-25 03:00:00 14.2 6 Sudeste 14 Este 0 -- -- 34
2019-05-25 02:00:00 15.7 5 Nordeste 15 Este 0 -- -- 18
2019-05-25 01:00:00 15.1 4 Este 18 Este 0 -- -- 32
2019-05-25 00:00:00 14.9 5 Nordeste 18 Este 0 -- -- 46
2019-05-24 23:00:00 13.9 4 Norte 12 Este 0 -- -- 74
2019-05-24 22:00:00 15.8 3 Nordeste 15 Nordeste 0 -- -- 55
2019-05-24 21:00:00 16.2 4 Este 9 Sur 0 -- -- 28
2019-05-24 20:00:00 19.4 3 Sudeste 9 Norte 0 -- -- 41
2019-05-24 19:00:00 22.1 3 Norte 10 Norte 0 -- -- 54
2019-05-24 18:00:00 22 4 Noroeste 11 Sur 0 -- -- 58
2019-05-24 17:00:00 25.5 5 Sudeste 22 Sudeste 0 -- -- 39
2019-05-24 16:00:00 22.5 13 Este 22 Sudeste 0 -- -- 44
2019-05-24 15:00:00 23.5 12 Este 21 Sudeste 0 -- -- 45
2019-05-24 14:00:00 22.8 14 Sudeste 22 Este 0 -- -- 46
2019-05-24 13:00:00 23 12 Sudeste 20 Sudeste 0 -- -- 41
2019-05-24 12:00:00 21.7 10 Este 28 Sudeste 0 -- -- 48
2019-05-24 11:00:00 21.1 8 Este 23 Este 0 -- -- 52
2019-05-24 10:00:00 18.9 5 Nordeste 14 Sudeste 0 -- -- 63
2019-05-24 09:00:00 15.7 4 Noroeste 16 Sur 0 -- -- 73
2019-05-24 08:00:00 13.1 5 Sur 15 Oeste 0 -- -- 78
2019-05-24 07:00:00 11 5 Oeste 14 Noroeste 0 -- -- 93
2019-05-24 06:00:00 12.7 7 Norte 18 Este 0 -- -- 77
2019-05-24 05:00:00 15.4 5 Sudeste 22 Este 0 -- -- 29
2019-05-24 04:00:00 13.7 6 Este 14 Sur 0 -- -- 52
2019-05-24 03:00:00 14.1 3 Sudeste 14 Este 0 -- -- 41
2019-05-24 02:00:00 15.5 6 Este 23 Este 0 -- -- 32
2019-05-24 01:00:00 13.8 6 Sur 17 Sur 0 -- -- 35
2019-05-24 00:00:00 11.4 4 Oeste 14 Oeste 0 -- -- 84
2019-05-23 23:00:00 11.6 5 Oeste 15 Noroeste 0 -- -- 97
2019-05-23 22:00:00 12.1 7 Noroeste 15 Oeste 0 -- -- 96
2019-05-23 21:00:00 12.1 9 Noroeste 23 Noroeste 0 -- -- 96
2019-05-23 20:00:00 12.7 9 Noroeste 23 Norte 0 -- -- 94
2019-05-23 19:00:00 14.2 10 Noroeste 17 Norte 0 -- -- 87
2019-05-23 18:00:00 15.4 9 Noroeste 21 Norte 0 -- -- 81
2019-05-23 17:00:00 15.5 8 Noroeste 23 Noroeste 0 -- -- 80
2019-05-23 16:00:00 16.3 10 Noroeste 19 Norte 0 -- -- 80
2019-05-23 15:00:00 15 9 Norte 22 Norte 0 -- -- 89
2019-05-23 14:00:00 14.6 12 Norte 21 Norte 0 -- -- 85
2019-05-23 13:00:00 14.4 8 Norte 19 Norte 0 -- -- 91
2019-05-23 12:00:00 14.7 7 Noroeste 19 Norte 0 -- -- 86
2019-05-23 11:00:00 13.6 10 Norte 21 Norte 0 -- -- 94
2019-05-23 10:00:00 12.6 5 Noroeste 19 Norte 0 -- -- 98
2019-05-23 09:00:00 11.9 5 Norte 22 Norte 0 -- -- 99
2019-05-23 08:00:00 11.5 8 Norte 19 Norte 0 -- -- 99
2019-05-23 07:00:00 11.4 9 Norte 21 Norte 0 -- -- 100
2019-05-23 06:00:00 11.3 5 Noroeste 26 Norte 0 -- -- 99
2019-05-23 05:00:00 11.1 5 Noroeste 28 Noroeste 0.2 -- -- 99
2019-05-23 04:00:00 11.2 7 Oeste 32 Noroeste 0 -- -- 99
2019-05-23 03:00:00 11.8 13 Norte 36 Norte 0 -- -- 99
2019-05-23 02:00:00 11.5 9 Oeste 26 Norte 0 -- -- 99
2019-05-23 01:00:00 12 9 Noroeste 21 Oeste 0 -- -- 99
2019-05-23 00:00:00 11.7 9 Noroeste 19 Noroeste 0 -- -- 99
2019-05-22 23:00:00 11.9 8 Noroeste 22 Noroeste 0 -- -- 99
2019-05-22 22:00:00 11.9 8 Noroeste 24 Norte 0 -- -- 98
2019-05-22 21:00:00 12.2 11 Norte 24 Norte 0 -- -- 98
2019-05-22 20:00:00 12.9 11 Norte 28 Noroeste 0 -- -- 97
2019-05-22 19:00:00 13.6 11 Noroeste 25 Norte 0.8 -- -- 97
2019-05-22 18:00:00 13.7 8 Noroeste 19 Norte 0.2 -- -- 95
2019-05-22 17:00:00 15.2 8 Oeste 20 Norte 0 -- -- 83
2019-05-22 16:00:00 15.4 5 Noroeste 17 Noroeste 0 -- -- 81
2019-05-22 15:00:00 15.9 6 Noroeste 16 Nordeste 0 -- -- 85
2019-05-22 14:00:00 16.2 5 Norte 18 Noroeste 0 -- -- 79
2019-05-22 13:00:00 15.9 7 Noroeste 19 Norte 0 -- -- 81
2019-05-22 12:00:00 13.7 9 Noroeste 20 Noroeste 0 -- -- 97
2019-05-22 11:00:00 13.8 6 Noroeste 17 Norte 0 -- -- 98
2019-05-22 10:00:00 12.7 8 Norte 15 Norte 0.2 -- -- 98
2019-05-22 09:00:00 12.3 5 Norte 15 Norte 0.2 -- -- 98
2019-05-22 08:00:00 12.1 2 Oeste 16 Norte 0 -- -- 98
2019-05-22 07:00:00 12 6 Nordeste 18 Norte 0 -- -- 98
2019-05-22 06:00:00 11.7 4 Norte 11 Norte 0 -- -- 98
2019-05-22 05:00:00 11.4 4 Norte 9 Norte 0 -- -- 98
2019-05-22 04:00:00 11.3 3 Norte 19 Norte 0 -- -- 98
2019-05-22 03:00:00 11.9 8 Noroeste 17 Norte 0.2 -- -- 98
2019-05-22 02:00:00 11.9 12 Norte 20 Norte 0 -- -- 97
2019-05-22 01:00:00 12 10 Norte 21 Norte 0 -- -- 97
2019-05-22 00:00:00 12.1 6 Noroeste 15 Oeste 0 -- -- 94